createdAt,value
2019-02-17T00:00:45.596Z,12.33
2019-02-17T00:03:17.261Z,12.83
2019-02-17T00:05:48.377Z,12.63
2019-02-17T00:08:20.267Z,11.23
2019-02-17T00:10:51.280Z,12.30
2019-02-17T00:13:22.374Z,12.37
2019-02-17T00:15:52.755Z,11.70
2019-02-17T00:18:23.991Z,13.30
2019-02-17T00:20:54.730Z,12.73
2019-02-17T00:23:25.793Z,12.53
2019-02-17T00:25:58.127Z,11.57
2019-02-17T00:28:29.236Z,12.13
2019-02-17T00:31:01.020Z,12.07
2019-02-17T00:33:31.566Z,12.80
2019-02-17T00:36:02.709Z,13.10
2019-02-17T00:38:34.522Z,14.50
2019-02-17T00:41:22.797Z,14.73
2019-02-17T00:43:57.182Z,14.83
2019-02-17T00:46:29.115Z,15.23
2019-02-17T00:49:00.086Z,14.43
2019-02-17T00:51:31.543Z,14.73
2019-02-17T00:54:02.969Z,14.30
2019-02-17T00:56:34.217Z,13.33
2019-02-17T00:59:10.078Z,12.60
2019-02-17T01:01:38.304Z,13.37
2019-02-17T01:04:08.959Z,11.63
2019-02-17T01:06:40.661Z,12.13
2019-02-17T01:09:11.366Z,12.33
2019-02-17T01:11:42.005Z,12.70
2019-02-17T01:14:13.848Z,12.70
2019-02-17T01:16:59.134Z,13.80
2019-02-17T01:19:30.734Z,12.93
2019-02-17T01:22:11.571Z,14.07
2019-02-17T01:24:42.623Z,14.10
2019-02-17T01:27:14.099Z,14.80
2019-02-17T01:29:45.225Z,14.47
2019-02-17T01:32:17.067Z,13.63
2019-02-17T01:34:48.712Z,14.03
2019-02-17T01:37:20.124Z,13.53
2019-02-17T01:39:57.339Z,13.43
2019-02-17T01:42:28.669Z,14.40
2019-02-17T01:44:59.933Z,14.20
2019-02-17T01:47:31.831Z,14.10
2019-02-17T01:50:02.812Z,14.33
2019-02-17T01:52:33.532Z,16.03
2019-02-17T01:55:04.208Z,15.30
2019-02-17T01:57:35.393Z,14.37
2019-02-17T02:00:08.246Z,15.90
2019-02-17T03:01:53.646Z,37.53
2019-02-17T03:04:24.917Z,38.60
2019-02-17T03:06:58.263Z,31.27
2019-02-17T03:09:29.690Z,25.30
2019-02-17T03:12:01.472Z,22.83
2019-02-17T03:14:32.922Z,21.60
2019-02-17T03:17:10.700Z,19.80
2019-02-17T03:19:42.577Z,19.60
2019-02-17T03:22:27.000Z,16.80
2019-02-17T03:24:58.358Z,17.20
2019-02-17T03:27:30.463Z,16.10
2019-02-17T03:30:05.078Z,17.40
2019-02-17T03:32:36.596Z,18.03
2019-02-17T03:35:11.574Z,16.13
2019-02-17T03:37:43.666Z,15.90
2019-02-17T03:40:14.758Z,16.00
2019-02-17T03:43:16.330Z,15.37
2019-02-17T03:45:48.138Z,16.47
2019-02-17T03:48:19.983Z,14.70
2019-02-17T03:50:51.619Z,16.10
2019-02-17T03:53:23.357Z,17.03
2019-02-17T03:56:04.699Z,16.03
2019-02-17T03:58:39.734Z,16.10
2019-02-17T04:01:11.514Z,16.77
2019-02-17T04:03:43.019Z,17.30
2019-02-17T04:06:17.325Z,16.13
2019-02-17T04:08:49.200Z,15.30
2019-02-17T04:11:22.795Z,16.00
2019-02-17T04:14:06.631Z,15.97
2019-02-17T04:16:43.893Z,14.60
2019-02-17T04:19:21.379Z,15.03
2019-02-17T04:21:53.393Z,15.30
2019-02-17T04:24:25.220Z,16.20
2019-02-17T04:26:57.669Z,14.63
2019-02-17T04:29:34.897Z,16.13
2019-02-17T04:32:06.418Z,15.67
2019-02-17T04:34:38.066Z,14.43
2019-02-17T04:37:09.376Z,16.00
2019-02-17T04:39:40.881Z,17.13
2019-02-17T04:42:26.083Z,15.97
2019-02-17T04:45:12.234Z,15.77
2019-02-17T04:47:47.673Z,15.93
2019-02-17T04:50:25.486Z,14.80
2019-02-17T04:52:57.228Z,16.13
2019-02-17T04:55:28.613Z,14.63
2019-02-17T04:57:59.514Z,16.67
2019-02-17T05:00:39.865Z,15.13
2019-02-17T05:03:03.236Z,14.57
2019-02-17T05:05:34.668Z,14.87
2019-02-17T05:08:06.053Z,15.97
2019-02-17T05:10:38.031Z,14.03
2019-02-17T05:13:09.312Z,16.30
2019-02-17T05:15:50.624Z,15.40
2019-02-17T05:18:22.339Z,13.77
2019-02-17T05:20:54.014Z,14.90
2019-02-17T05:23:25.789Z,15.10
2019-02-17T05:25:57.452Z,15.20
2019-02-17T05:28:28.475Z,15.37
2019-02-17T05:30:59.847Z,17.27
2019-02-17T05:33:31.165Z,16.93
2019-02-17T05:36:02.791Z,13.77
2019-02-17T05:38:33.894Z,15.93
2019-02-17T05:41:05.221Z,15.17
2019-02-17T05:43:36.321Z,15.67
2019-02-17T05:46:08.023Z,16.30
2019-02-17T05:48:39.127Z,16.50
2019-02-17T05:51:10.781Z,16.37
2019-02-17T05:53:42.166Z,15.93
2019-02-17T05:56:14.276Z,17.47
2019-02-17T05:58:45.647Z,15.07
2019-02-17T06:01:16.845Z,16.20
2019-02-17T06:03:47.863Z,16.10
2019-02-17T06:06:19.621Z,16.73
2019-02-17T06:08:50.962Z,15.93
2019-02-17T06:11:22.012Z,16.67
2019-02-17T06:13:53.362Z,17.13
2019-02-17T06:16:25.324Z,17.10
2019-02-17T06:18:56.690Z,18.70
2019-02-17T06:21:27.698Z,18.23
2019-02-17T06:23:58.866Z,17.83
2019-02-17T06:26:30.287Z,18.07
2019-02-17T06:29:01.653Z,13.83
2019-02-17T06:31:33.286Z,15.43
2019-02-17T06:34:04.953Z,13.30
2019-02-17T06:36:52.189Z,16.90
2019-02-17T06:39:23.922Z,16.40
2019-02-17T06:41:55.107Z,14.33
2019-02-17T06:44:26.561Z,13.87
2019-02-17T06:47:03.316Z,14.97
2019-02-17T06:49:35.389Z,14.63
2019-02-17T06:52:06.780Z,15.93
2019-02-17T06:54:37.953Z,13.07
2019-02-17T06:57:27.960Z,12.83
2019-02-17T07:00:12.997Z,12.60
2019-02-17T07:02:44.785Z,12.70
2019-02-17T07:05:22.467Z,13.63
2019-02-17T07:07:54.179Z,13.43
2019-02-17T07:10:25.488Z,13.93
2019-02-17T07:12:56.512Z,13.43
2019-02-17T07:15:28.590Z,17.27
2019-02-17T07:17:59.359Z,13.20
2019-02-17T07:20:30.793Z,13.37
2019-02-17T07:23:02.552Z,14.13
2019-02-17T07:25:33.876Z,13.37
2019-02-17T07:28:05.327Z,14.03
2019-02-17T07:30:37.007Z,12.97
2019-02-17T07:33:08.034Z,15.23
2019-02-17T07:35:40.043Z,13.83
2019-02-17T07:38:11.451Z,12.63
2019-02-17T07:40:43.607Z,13.60
2019-02-17T07:43:14.652Z,12.73
2019-02-17T07:45:46.389Z,13.73
2019-02-17T07:48:17.425Z,14.43
2019-02-17T07:50:49.144Z,15.90
2019-02-17T07:53:21.154Z,13.23
2019-02-17T07:55:53.020Z,13.97
2019-02-17T07:58:24.417Z,12.03
2019-02-17T08:00:55.912Z,18.07
2019-02-17T08:03:26.638Z,12.57
2019-02-17T08:05:58.194Z,13.47
2019-02-17T08:08:29.949Z,12.77
2019-02-17T08:11:04.020Z,15.87
2019-02-17T08:13:34.820Z,12.67
2019-02-17T08:16:05.951Z,12.23
2019-02-17T08:18:37.707Z,11.93
2019-02-17T08:21:08.806Z,11.37
2019-02-17T08:23:40.057Z,11.20
2019-02-17T08:26:11.386Z,11.17
2019-02-17T08:29:21.814Z,11.97
2019-02-17T08:31:55.803Z,11.73
2019-02-17T08:34:25.923Z,10.97
2019-02-17T08:36:57.275Z,11.10
2019-02-17T08:39:28.856Z,12.10
2019-02-17T08:42:00.673Z,11.10
2019-02-17T08:44:32.204Z,10.17
2019-02-17T08:47:03.164Z,9.90
2019-02-17T08:49:34.245Z,11.50
2019-02-17T08:52:05.356Z,13.70
2019-02-17T08:54:36.705Z,10.80
2019-02-17T08:57:08.804Z,11.17
2019-02-17T08:59:40.350Z,11.43
2019-02-17T09:02:11.991Z,12.27
2019-02-17T09:04:43.139Z,11.70
2019-02-17T09:07:14.257Z,11.70
2019-02-17T09:09:46.076Z,10.77
2019-02-17T09:12:18.081Z,10.73
2019-02-17T09:14:49.038Z,10.83
2019-02-17T09:17:19.746Z,11.40
2019-02-17T09:19:51.656Z,12.27
2019-02-17T09:22:22.980Z,11.97
2019-02-17T09:24:54.471Z,12.30
2019-02-17T09:27:26.509Z,12.03
2019-02-17T09:29:57.915Z,11.90
2019-02-17T09:32:52.267Z,12.10
2019-02-17T09:35:23.575Z,13.30
2019-02-17T09:37:54.939Z,12.77
2019-02-17T09:40:34.492Z,15.37
2019-02-17T09:43:06.193Z,12.83
2019-02-17T09:45:37.757Z,20.93
2019-02-17T09:48:09.027Z,16.70
2019-02-17T09:50:42.321Z,13.60
2019-02-17T09:53:13.759Z,13.23
2019-02-17T09:55:44.706Z,14.03
2019-02-17T09:58:16.487Z,15.50
2019-02-17T10:00:48.008Z,14.13
2019-02-17T10:03:19.299Z,14.00
2019-02-17T10:05:50.951Z,13.57
2019-02-17T10:08:22.715Z,14.70
2019-02-17T10:10:53.978Z,15.13
2019-02-17T10:13:25.278Z,16.23
2019-02-17T10:15:56.001Z,14.97
2019-02-17T10:18:27.661Z,15.63
2019-02-17T10:20:59.011Z,19.37
2019-02-17T10:23:30.110Z,15.20
2019-02-17T10:26:04.849Z,16.00
2019-02-17T10:28:42.390Z,16.63
2019-02-17T10:31:09.049Z,15.93
2019-02-17T10:33:41.156Z,14.23
2019-02-17T10:36:31.430Z,16.30
2019-02-17T10:39:02.086Z,18.17
2019-02-17T10:41:33.868Z,16.43
2019-02-17T10:44:06.134Z,15.80
2019-02-17T10:46:39.352Z,16.00
2019-02-17T10:49:10.688Z,16.00
2019-02-17T10:51:41.819Z,15.13
2019-02-17T10:54:13.268Z,22.10
2019-02-17T10:56:45.027Z,21.30
2019-02-17T10:59:16.194Z,16.73
2019-02-17T11:01:49.113Z,16.80
2019-02-17T11:04:21.007Z,17.87
2019-02-17T11:06:55.430Z,18.37
2019-02-17T11:09:28.648Z,18.77
2019-02-17T11:12:15.075Z,17.57
2019-02-17T11:14:51.809Z,17.77
2019-02-17T11:17:27.415Z,18.07
2019-02-17T11:20:18.084Z,18.83
2019-02-17T11:22:49.819Z,19.43
2019-02-17T11:25:21.960Z,17.30
2019-02-17T11:27:53.324Z,17.07
2019-02-17T11:30:37.392Z,16.30
2019-02-17T11:33:08.931Z,15.80
2019-02-17T11:35:40.701Z,15.23
2019-02-17T11:38:13.253Z,15.40
2019-02-17T11:40:45.336Z,14.77
2019-02-17T11:43:17.299Z,14.80
2019-02-17T11:48:33.066Z,14.33
2019-02-17T11:51:04.933Z,16.17
2019-02-17T11:53:37.706Z,16.17
2019-02-17T11:56:10.286Z,15.97
2019-02-17T11:58:54.266Z,17.47
2019-02-17T12:01:24.664Z,16.00
2019-02-17T12:03:59.566Z,14.10
2019-02-17T12:06:38.634Z,11.43
2019-02-17T12:09:12.377Z,10.43
2019-02-17T12:11:45.823Z,9.23
2019-02-17T12:14:23.105Z,9.17
2019-02-17T12:16:57.101Z,9.87
2019-02-17T12:19:28.075Z,9.80
2019-02-17T12:22:18.163Z,9.77
2019-02-17T12:24:54.634Z,11.23
2019-02-17T12:27:30.857Z,10.83
2019-02-17T12:30:08.199Z,10.50
2019-02-17T12:32:39.772Z,10.40
2019-02-17T12:35:10.969Z,11.73
2019-02-17T12:37:42.757Z,12.07
2019-02-17T12:40:26.868Z,12.03
2019-02-17T12:43:02.723Z,12.00
2019-02-17T12:45:54.685Z,11.60
2019-02-17T12:48:25.879Z,11.33
2019-02-17T12:51:01.733Z,13.27
2019-02-17T12:53:43.520Z,10.43
2019-02-17T12:56:16.254Z,11.90
2019-02-17T12:59:00.457Z,11.87
2019-02-17T13:01:45.304Z,11.23
2019-02-17T13:04:16.660Z,9.43
2019-02-17T13:06:48.146Z,10.20
2019-02-17T13:09:19.544Z,9.33
2019-02-17T13:11:51.438Z,9.60
2019-02-17T13:14:22.614Z,9.77
2019-02-17T13:16:54.662Z,10.33
2019-02-17T13:19:26.889Z,8.97
2019-02-17T13:22:03.820Z,9.30
2019-02-17T13:24:35.419Z,9.60
2019-02-17T13:27:07.834Z,10.20
2019-02-17T13:29:42.581Z,9.80
2019-02-17T13:32:13.812Z,8.03
2019-02-17T13:34:51.731Z,8.80
2019-02-17T13:37:24.073Z,9.30
2019-02-17T13:40:02.340Z,8.77
2019-02-17T13:42:37.490Z,9.20
2019-02-17T13:45:11.575Z,8.17
2019-02-17T13:47:42.316Z,8.47
2019-02-17T13:50:15.677Z,9.40
2019-02-17T13:52:47.468Z,9.33
2019-02-17T13:55:21.832Z,8.83
2019-02-17T13:57:53.917Z,9.37
2019-02-17T14:00:37.560Z,9.67
2019-02-17T14:03:20.139Z,8.17
2019-02-17T14:05:52.419Z,9.70
2019-02-17T14:08:23.445Z,9.20
2019-02-17T14:10:56.086Z,8.70
2019-02-17T14:13:28.225Z,8.88
2019-02-17T14:16:00.178Z,8.87
2019-02-17T14:18:32.559Z,9.53
2019-02-17T14:21:03.953Z,9.78
2019-02-17T14:23:35.840Z,9.08
2019-02-17T14:26:06.867Z,9.78
2019-02-17T14:28:38.271Z,11.00
2019-02-17T14:31:10.420Z,12.03
2019-02-17T14:33:41.541Z,11.27
2019-02-17T14:36:12.819Z,12.70
2019-02-17T14:38:44.307Z,12.63
2019-02-17T14:41:15.070Z,11.60
2019-02-17T14:43:57.405Z,12.63
2019-02-17T14:46:35.049Z,12.43
2019-02-17T14:49:12.374Z,12.00
2019-02-17T14:51:49.777Z,10.93
2019-02-17T14:54:21.455Z,11.20
2019-02-17T14:56:52.731Z,11.33
2019-02-17T14:59:24.821Z,11.77
2019-02-17T15:01:55.912Z,11.33
2019-02-17T15:04:52.135Z,13.00
2019-02-17T15:07:22.823Z,12.90
2019-02-17T15:09:54.303Z,12.53
2019-02-17T15:12:25.408Z,12.97
2019-02-17T15:14:56.510Z,12.77
2019-02-17T15:17:28.450Z,13.60
2019-02-17T15:20:00.335Z,13.10
2019-02-17T15:22:31.777Z,14.50
2019-02-17T15:25:03.500Z,13.67
2019-02-17T15:27:35.197Z,14.03
2019-02-17T15:30:07.074Z,13.27
2019-02-17T15:32:39.195Z,12.27
2019-02-17T15:35:10.991Z,13.27
2019-02-17T15:37:42.445Z,13.63
2019-02-17T15:40:13.494Z,13.83
2019-02-17T15:43:14.963Z,13.00
2019-02-17T15:45:48.009Z,13.67
2019-02-17T15:48:21.006Z,13.07
2019-02-17T15:50:52.136Z,13.40
2019-02-17T15:53:23.790Z,14.00
2019-02-17T15:55:55.988Z,13.40
2019-02-17T15:59:03.269Z,13.68
2019-02-17T16:02:07.150Z,13.78
2019-02-17T16:04:38.907Z,13.18
2019-02-17T16:07:10.241Z,13.53
2019-02-17T16:09:41.729Z,13.90
2019-02-17T16:12:13.173Z,13.80
2019-02-17T16:14:54.044Z,13.48
2019-02-17T16:17:25.190Z,14.10
2019-02-17T16:19:57.379Z,14.53
2019-02-17T16:22:41.905Z,13.70
2019-02-17T16:25:13.041Z,14.03
2019-02-17T16:27:48.041Z,14.23
2019-02-17T16:30:20.670Z,13.80
2019-02-17T16:32:52.023Z,13.60
2019-02-17T16:35:23.081Z,15.03
2019-02-17T16:37:54.510Z,13.87
2019-02-17T16:40:53.343Z,13.80
2019-02-17T16:43:24.539Z,14.27
2019-02-17T16:45:56.643Z,14.97
2019-02-17T16:48:27.976Z,13.53
2019-02-17T16:51:00.962Z,14.00
2019-02-17T16:53:40.873Z,12.63
2019-02-17T16:56:12.044Z,13.20
2019-02-17T16:58:42.823Z,13.03
2019-02-17T17:01:14.024Z,13.97
2019-02-17T17:03:45.951Z,12.50
2019-02-17T17:06:17.592Z,12.80
2019-02-17T17:08:49.500Z,13.03
2019-02-17T17:11:29.669Z,12.43
2019-02-17T17:14:01.275Z,12.57
2019-02-17T17:16:33.038Z,13.67
2019-02-17T17:19:03.950Z,12.87
2019-02-17T17:21:35.897Z,12.80
2019-02-17T17:24:07.592Z,12.93
2019-02-17T17:26:38.672Z,14.20
2019-02-17T17:29:09.777Z,15.07
2019-02-17T17:31:41.084Z,15.03
2019-02-17T17:34:12.081Z,16.57
2019-02-17T17:36:43.395Z,17.87
2019-02-17T17:39:15.003Z,18.23
2019-02-17T17:41:48.152Z,17.70
2019-02-17T17:44:19.522Z,14.60
2019-02-17T17:46:51.524Z,15.50
2019-02-17T17:49:23.548Z,12.77
2019-02-17T17:51:54.873Z,12.63
2019-02-17T17:54:32.252Z,12.00
2019-02-17T17:57:03.332Z,10.83
2019-02-17T17:59:34.678Z,12.47
2019-02-17T18:02:05.596Z,12.57
2019-02-17T18:04:37.449Z,11.73
2019-02-17T18:07:08.701Z,12.93
2019-02-17T18:09:49.924Z,12.43
2019-02-17T18:12:21.612Z,12.00
2019-02-17T18:14:53.315Z,13.80
2019-02-17T18:17:25.398Z,11.93
2019-02-17T18:19:57.336Z,12.50
2019-02-17T18:22:47.835Z,13.23
2019-02-17T18:25:19.169Z,12.63
2019-02-17T18:27:51.069Z,12.73
2019-02-17T18:30:25.501Z,12.53
2019-02-17T18:32:56.759Z,14.23
2019-02-17T18:35:29.699Z,11.97
2019-02-17T18:38:01.458Z,10.20
2019-02-17T18:40:44.473Z,11.17
2019-02-17T18:43:08.502Z,10.33
2019-02-17T18:45:40.204Z,10.80
2019-02-17T18:48:12.974Z,11.97
2019-02-17T18:50:43.931Z,10.70
2019-02-17T18:53:19.982Z,11.03
2019-02-17T18:55:52.178Z,9.73
2019-02-17T18:58:23.382Z,8.70
2019-02-17T19:00:55.784Z,9.13
2019-02-17T19:03:27.239Z,9.33
2019-02-17T19:05:58.807Z,9.03
2019-02-17T19:08:30.263Z,8.60
2019-02-17T19:11:01.722Z,9.43
2019-02-17T19:13:55.984Z,8.07
2019-02-17T19:16:27.769Z,8.80
2019-02-17T19:18:59.562Z,8.77
2019-02-17T19:21:30.976Z,8.47
2019-02-17T19:24:02.879Z,8.20
2019-02-17T19:26:34.917Z,7.60
2019-02-17T19:29:10.305Z,7.77
2019-02-17T19:31:41.345Z,8.03
2019-02-17T19:34:20.838Z,8.10
2019-02-17T19:36:57.844Z,8.13
2019-02-17T19:39:33.853Z,8.03
2019-02-17T19:42:05.136Z,8.53
2019-02-17T19:44:36.547Z,8.30
2019-02-17T19:47:14.111Z,8.93
2019-02-17T19:49:48.073Z,8.80
2019-02-17T19:52:19.750Z,8.47
2019-02-17T19:54:51.694Z,8.47
2019-02-17T19:57:23.807Z,8.23
2019-02-17T19:59:55.670Z,7.93
2019-02-17T20:03:02.299Z,8.80
2019-02-17T20:05:38.075Z,8.07
2019-02-17T20:08:14.230Z,8.50
2019-02-17T20:10:46.207Z,7.63
2019-02-17T20:13:18.773Z,8.43
2019-02-17T20:15:52.444Z,9.27
2019-02-17T20:18:31.924Z,7.57
2019-02-17T20:21:05.934Z,8.93
2019-02-17T20:23:42.533Z,7.87
2019-02-17T20:26:18.146Z,7.27
2019-02-17T20:29:01.603Z,7.53
2019-02-17T20:31:53.836Z,7.30
2019-02-17T20:34:33.766Z,8.27
2019-02-17T20:37:44.308Z,8.27
2019-02-17T20:40:16.445Z,7.37
2019-02-17T20:43:11.349Z,6.83
2019-02-17T20:46:13.199Z,8.60
2019-02-17T20:49:14.342Z,7.10
2019-02-17T20:52:30.553Z,7.17
2019-02-17T20:55:41.567Z,8.03
2019-02-17T20:59:03.037Z,8.17
2019-02-17T21:01:37.561Z,7.77
2019-02-17T21:04:19.932Z,7.57
2019-02-17T21:06:53.266Z,7.73
2019-02-17T21:09:31.217Z,7.37
2019-02-17T21:12:09.992Z,7.60
2019-02-17T21:14:49.625Z,7.30
2019-02-17T21:17:30.446Z,7.30
2019-02-17T21:20:10.796Z,7.17
2019-02-17T21:22:47.193Z,7.50
2019-02-17T21:25:20.881Z,7.97
2019-02-17T21:28:02.250Z,7.67
2019-02-17T21:30:44.118Z,7.13
2019-02-17T21:33:36.281Z,8.73
2019-02-17T21:36:23.393Z,10.07
2019-02-17T21:38:59.518Z,8.33
2019-02-17T21:41:36.721Z,8.93
2019-02-17T21:44:12.823Z,8.13
2019-02-17T21:46:46.139Z,9.30
2019-02-17T21:49:17.604Z,8.90
2019-02-17T21:51:51.010Z,8.43
2019-02-17T21:54:26.358Z,7.13
2019-02-17T21:57:09.277Z,8.30
2019-02-17T21:59:50.585Z,8.20
2019-02-17T22:02:21.422Z,8.80
2019-02-17T22:04:59.390Z,8.57
2019-02-17T22:07:37.142Z,7.93
2019-02-17T22:10:11.335Z,8.00
2019-02-17T22:12:45.556Z,8.20
2019-02-17T22:15:50.963Z,7.93
2019-02-17T22:18:33.641Z,8.63
2019-02-17T22:21:29.247Z,9.27
2019-02-17T22:24:04.552Z,8.27
2019-02-17T22:26:53.305Z,7.83
2019-02-17T22:29:38.422Z,9.57
2019-02-17T22:32:19.163Z,7.67
2019-02-17T22:35:03.141Z,8.93
2019-02-17T22:37:40.907Z,7.97
2019-02-17T22:40:26.050Z,8.57
2019-02-17T22:43:07.199Z,8.90
2019-02-17T22:45:43.469Z,8.40
2019-02-17T22:48:38.678Z,8.80
2019-02-17T22:51:10.991Z,9.47
2019-02-17T22:53:45.109Z,9.37
2019-02-17T22:56:18.211Z,10.53
2019-02-17T22:59:07.588Z,10.13
2019-02-17T23:01:39.029Z,9.33
2019-02-17T23:04:33.249Z,9.10
2019-02-17T23:07:11.047Z,9.30
2019-02-17T23:09:47.900Z,8.13
2019-02-17T23:12:34.663Z,9.27
2019-02-17T23:15:07.510Z,9.23
2019-02-17T23:17:44.654Z,8.90
2019-02-17T23:20:19.998Z,8.60
2019-02-17T23:22:51.902Z,10.47
2019-02-17T23:25:27.438Z,9.30
2019-02-17T23:28:01.219Z,10.17
2019-02-17T23:30:45.588Z,9.70
2019-02-17T23:33:23.330Z,9.40
2019-02-17T23:36:06.257Z,10.17
2019-02-17T23:38:45.098Z,9.50
2019-02-17T23:41:27.725Z,10.17
2019-02-17T23:44:04.065Z,10.07
2019-02-17T23:46:41.607Z,8.87
2019-02-17T23:49:19.793Z,10.87
2019-02-17T23:51:53.516Z,10.77
2019-02-17T23:54:25.629Z,10.00
2019-02-17T23:57:04.876Z,10.00
